• Join FlightAware (Why Join?)
  • Login
  • US Flag 
01:14AM EDT


 

Airport Tracker/Info


-or-


 

Live Flight TrackerFlight Track Log ✈ RPA3275 ✈ 18-Jul-2013 ✈ KALB - KPHL

Flight Track Log - Related Links

Times and Time Zones

All times are in EDT time to prevent confusion due to time zone crossing. See the RPA3275 flight status page for this flight to view local times or setup timezone preferences in your user account.

Time Position Orientation Groundspeed Altitude Reporting Facility
EDT Latitude Longitude Course Direction KTS MPH feet Rate Location/Type
06:58AM 42.7631 -73.8061 220° Southwest 150 173 1,400  Level Boston Center
06:59AM 42.7939 -73.8575 309° West 243 280 3,900 2,880 Climbing Boston Center
07:00AM 42.7842 -73.9564 262° West 264 304 7,500 3,540 Climbing Boston Center
07:01AM 42.7333 -74.2645 270° West  Level FlightAware Approximate
07:01AM 42.7744 -74.0608 263° West 274 315 11,000  Level Boston Center
07:02AM 42.6939 -74.3590 220° Southwest  Level FlightAware Approximate
07:02AM 42.7603 -74.1736 260° West 293 337 14,000  Level Boston Center
07:03AM 42.6282 -74.4330 220° Southwest  Level FlightAware Approximate
07:03AM 42.7481 -74.2778 261° West 317 365 16,000  Level Boston Center
07:04AM 42.6819 -74.3806 229° Southwest 324 373 16,000  Level Boston Center
07:05AM 42.6181 -74.4544 220° Southwest 333 383 16,000  Level Boston Center
07:06AM 42.5414 -74.5422 220° Southwest 338 389 16,000  Level Boston Center
07:07AM 42.4756 -74.6161 220° Southwest 338 389 16,000  Level Boston Center
07:08AM 42.3964 -74.7089 221° Southwest 344 396 16,000  Level Boston Center
07:09AM 42.3325 -74.7797 219° Southwest 344 396 16,000  Level Boston Center
07:10AM 42.2556 -74.8722 222° Southwest 344 396 16,000  Level Boston Center
07:12AM 42.1269 -75.0017 217° Southwest 343 395 16,100  Climbing New York Center
07:13AM 42.0453 -75.0689 211° Southwest 348 400 16,000 -60 Descending New York Center
07:14AM 41.9725 -75.1311 212° Southwest 348 400 16,000  Level New York Center
07:15AM 41.8908 -75.1953 210° Southwest 348 400 16,000  Level New York Center
07:16AM 41.8008 -75.2672 211° Southwest 353 406 16,000  Level New York Center
07:17AM 41.7192 -75.3339 211° Southwest 353 406 16,000  Level New York Center
07:18AM 41.6394 -75.3978 211° Southwest 347 399 16,000 -840 Level New York Center
07:19AM 41.5642 -75.4592 211° Southwest 352 405 14,400 -1,800 Descending New York Center
07:20AM 41.4783 -75.5281 211° Southwest 347 399 12,400 -1,200 Descending New York Center
07:21AM 41.3986 -75.5914 211° Southwest 341 392 12,000 -240 Descending New York Center
07:22AM 41.3192 -75.6522 210° Southwest 341 392 12,000  Level New York Center
07:23AM 41.2319 -75.6928 199° South 335 386 12,000  Level New York Center
07:24AM 41.1489 -75.6867 177° South 335 386 12,000  Level New York Center
07:25AM 41.0556 -75.6744 174° South 335 386 12,000  Level New York Center
07:26AM 40.9614 -75.6372 163° South 348 400 12,000  Level New York Center
07:27AM 40.8692 -75.6006 163° South 353 406 12,100  Climbing New York Center
07:28AM 40.7686 -75.5606 163° South 353 406 12,000 -180 Descending New York Center
07:29AM 40.6744 -75.5211 162° South 353 406 11,800 -600 Descending New York Center
07:30AM 40.5842 -75.4847 163° South 353 406 10,800 -960 Descending New York Center
07:31AM 40.5061 -75.4550 164° South 345 397 10,000 -660 Descending New York Center
07:32AM 40.4250 -75.4003 153° Southeast 309 356 9,500 -1,080 Descending New York Center
07:33AM 40.3522 -75.3383 147° Southeast 297 342 7,900 -1,740 Descending New York Center
07:34AM 40.2939 -75.2853 145° Southeast 292 336 6,100 -960 Descending New York Center
07:35AM 40.2294 -75.2242 144° Southeast 292 336 6,000 -60 Descending New York Center
07:36AM 40.1525 -75.1650 150° Southeast 292 336 6,000  Level New York Center
07:37AM 40.0861 -75.1036 145° Southeast 286 329 6,000 -540 Level New York Center
07:38AM 40.0333 -75.0500 142° Southeast 283 326 5,000 -840 Descending Philadelphia TRACON
07:39AM 39.9667 -75.0000 150° Southeast 246 283 4,400 -840 Descending Philadelphia TRACON
07:40AM 39.9167 -75.0000 180° South 183 211 3,400 -1,020 Descending Philadelphia TRACON